createdAt,value
2018-05-01T00:00:10.218Z,13.85
2018-05-01T00:01:10.413Z,13.88
2018-05-01T00:02:10.608Z,13.84
2018-05-01T00:05:07.328Z,13.92
2018-05-01T00:05:43.974Z,13.79
2018-05-01T00:06:44.136Z,13.95
2018-05-01T00:07:44.318Z,13.89
2018-05-01T00:08:44.625Z,14.00
2018-05-01T00:09:44.660Z,13.96
2018-05-01T00:10:44.826Z,13.96
2018-05-01T00:11:44.995Z,13.95
2018-05-01T00:12:45.150Z,13.92
2018-05-01T00:13:45.339Z,13.92
2018-05-01T00:14:45.498Z,13.96
2018-05-01T00:15:45.727Z,13.87
2018-05-01T00:16:45.854Z,13.73
2018-05-01T00:17:46.002Z,13.91
2018-05-01T00:18:46.170Z,13.82
2018-05-01T00:19:46.334Z,13.85
2018-05-01T00:20:46.500Z,13.85
2018-05-01T00:21:46.661Z,13.81
2018-05-01T00:22:46.839Z,13.78
2018-05-01T00:23:47.052Z,13.96
2018-05-01T00:24:47.381Z,13.85
2018-05-01T00:25:47.479Z,13.85
2018-05-01T00:26:47.518Z,13.82
2018-05-01T00:27:47.684Z,13.78
2018-05-01T00:28:47.859Z,13.75
2018-05-01T00:29:48.017Z,13.84
2018-05-01T00:30:48.180Z,13.89
2018-05-01T00:31:48.342Z,13.85
2018-05-01T00:32:48.510Z,13.78
2018-05-01T00:33:48.672Z,13.81
2018-05-01T00:34:48.838Z,13.85
2018-05-01T00:35:49.004Z,13.91
2018-05-01T00:36:49.165Z,13.95
2018-05-01T00:37:49.328Z,13.99
2018-05-01T00:38:49.500Z,13.96
2018-05-01T00:39:49.662Z,13.88
2018-05-01T00:40:49.824Z,13.89
2018-05-01T00:41:50.000Z,13.75
2018-05-01T00:42:50.148Z,13.79
2018-05-01T00:43:50.312Z,13.69
2018-05-01T00:44:50.477Z,13.60
2018-05-01T00:45:50.637Z,13.60
2018-05-01T00:46:50.808Z,13.66
2018-05-01T00:47:50.973Z,13.71
2018-05-01T00:48:51.146Z,13.73
2018-05-01T00:49:51.318Z,13.79
2018-05-01T00:50:51.490Z,13.69
2018-05-01T00:51:51.652Z,13.70
2018-05-01T00:52:51.829Z,13.63
2018-05-01T00:53:51.986Z,13.63
2018-05-01T00:54:52.149Z,13.77
2018-05-01T00:55:52.310Z,13.82
2018-05-01T00:56:52.481Z,13.64
2018-05-01T00:57:52.649Z,13.60
2018-05-01T00:58:52.817Z,13.73
2018-05-01T00:59:52.985Z,13.69
2018-05-01T01:00:53.157Z,13.77
2018-05-01T01:01:53.320Z,13.70
2018-05-01T01:02:53.481Z,13.69
2018-05-01T01:03:53.647Z,13.73
2018-05-01T01:04:53.812Z,13.69
2018-05-01T01:05:53.973Z,13.66
2018-05-01T01:06:54.135Z,13.55
2018-05-01T01:07:54.301Z,13.75
2018-05-01T01:08:54.469Z,13.78
2018-05-01T01:09:54.626Z,13.62
2018-05-01T01:10:54.789Z,13.73
2018-05-01T01:11:54.954Z,13.60
2018-05-01T01:12:55.120Z,13.64
2018-05-01T01:13:55.279Z,13.55
2018-05-01T01:14:55.440Z,13.48
2018-05-01T01:15:55.604Z,13.64
2018-05-01T01:16:55.771Z,13.48
2018-05-01T01:17:55.949Z,13.52
2018-05-01T01:18:56.110Z,13.52
2018-05-01T01:19:56.277Z,13.49
2018-05-01T01:20:56.440Z,13.48
2018-05-01T01:21:56.608Z,13.52
2018-05-01T01:22:56.759Z,13.46
2018-05-01T01:23:56.940Z,13.38
2018-05-01T01:24:57.082Z,13.36
2018-05-01T01:25:57.252Z,13.15
2018-05-01T01:26:57.410Z,13.11
2018-05-01T01:27:57.566Z,13.11
2018-05-01T01:28:58.270Z,13.01
2018-05-01T01:29:57.958Z,13.07
2018-05-01T01:30:58.118Z,12.90
2018-05-01T01:31:58.284Z,12.93
2018-05-01T01:32:58.458Z,12.96
2018-05-01T01:33:58.619Z,12.97
2018-05-01T01:34:58.782Z,12.92
2018-05-01T01:35:58.946Z,12.62
2018-05-01T01:36:59.109Z,12.54
2018-05-01T01:37:59.276Z,12.54
2018-05-01T01:38:59.447Z,12.74
2018-05-01T01:39:59.607Z,12.57
2018-05-01T01:40:59.770Z,12.52
2018-05-01T01:41:59.930Z,12.56
2018-05-01T01:43:00.098Z,12.46
2018-05-01T01:44:00.261Z,12.56
2018-05-01T01:45:00.419Z,12.47
2018-05-01T01:46:00.588Z,12.39
2018-05-01T01:47:00.751Z,12.34
2018-05-01T01:48:00.916Z,12.42
2018-05-01T01:49:01.077Z,12.31
2018-05-01T01:50:01.244Z,12.49
2018-05-01T01:51:01.410Z,12.35
2018-05-01T01:52:01.570Z,12.24
2018-05-01T01:53:01.731Z,12.28
2018-05-01T01:54:01.899Z,12.19
2018-05-01T01:55:02.059Z,12.17
2018-05-01T01:56:02.220Z,12.14
2018-05-01T01:57:02.382Z,12.13
2018-05-01T01:58:02.542Z,12.12
2018-05-01T01:59:02.701Z,12.09
2018-05-01T02:00:02.871Z,11.99
2018-05-01T02:01:03.028Z,12.07
2018-05-01T02:02:03.196Z,11.83
2018-05-01T02:03:03.359Z,11.85
2018-05-01T02:04:03.515Z,11.70
2018-05-01T02:05:03.685Z,11.61
2018-05-01T02:06:03.846Z,11.54
2018-05-01T02:07:04.007Z,11.54
2018-05-01T02:08:04.170Z,11.60
2018-05-01T02:09:04.329Z,11.65
2018-05-01T02:10:04.494Z,11.70
2018-05-01T02:11:04.692Z,11.69
2018-05-01T02:12:04.823Z,11.76
2018-05-01T02:13:05.050Z,11.62
2018-05-01T02:14:05.146Z,11.60
2018-05-01T02:15:05.312Z,11.58
2018-05-01T02:16:05.476Z,11.37
2018-05-01T02:17:05.635Z,11.40
2018-05-01T02:18:05.794Z,11.44
2018-05-01T02:19:05.962Z,11.36
2018-05-01T02:20:06.126Z,11.39
2018-05-01T02:21:06.283Z,11.15
2018-05-01T02:22:06.444Z,11.28
2018-05-01T02:23:06.608Z,11.21
2018-05-01T02:24:06.776Z,11.25
2018-05-01T02:25:06.940Z,11.32
2018-05-01T02:26:07.102Z,11.24
2018-05-01T02:27:07.268Z,11.35
2018-05-01T02:28:07.425Z,11.39
2018-05-01T02:29:07.588Z,11.25
2018-05-01T02:30:07.747Z,11.24
2018-05-01T02:31:07.920Z,11.29
2018-05-01T02:32:08.076Z,11.24
2018-05-01T02:33:08.241Z,11.28
2018-05-01T02:34:08.398Z,11.14
2018-05-01T02:35:08.998Z,10.92
2018-05-01T02:36:09.183Z,11.19
2018-05-01T02:37:09.310Z,11.24
2018-05-01T02:38:09.467Z,11.19
2018-05-01T02:39:09.645Z,11.35
2018-05-01T02:40:09.818Z,11.44
2018-05-01T02:41:09.976Z,11.40
2018-05-01T02:42:10.169Z,11.40
2018-05-01T02:43:10.361Z,11.32
2018-05-01T02:44:10.148Z,11.47
2018-05-01T02:45:10.309Z,11.39
2018-05-01T02:46:10.471Z,11.51
2018-05-01T02:47:10.638Z,11.57
2018-05-01T02:48:10.795Z,11.44
2018-05-01T02:49:10.956Z,11.54
2018-05-01T02:50:11.121Z,11.40
2018-05-01T02:51:11.287Z,11.44
2018-05-01T02:52:11.443Z,11.49
2018-05-01T02:53:11.603Z,11.58
2018-05-01T02:54:11.768Z,11.73
2018-05-01T02:55:11.926Z,11.73
2018-05-01T02:56:12.092Z,11.57
2018-05-01T02:57:12.257Z,11.55
2018-05-01T02:58:12.415Z,11.62
2018-05-01T02:59:12.589Z,11.70
2018-05-01T03:00:12.751Z,11.61
2018-05-01T03:01:12.914Z,11.49
2018-05-01T03:02:13.079Z,11.52
2018-05-01T03:03:13.237Z,11.40
2018-05-01T03:04:13.398Z,11.33
2018-05-01T03:05:13.561Z,11.49
2018-05-01T03:06:13.728Z,11.54
2018-05-01T03:07:13.887Z,11.54
2018-05-01T03:08:14.056Z,11.47
2018-05-01T03:09:14.230Z,11.28
2018-05-01T03:10:14.405Z,11.29
2018-05-01T03:11:14.566Z,11.19
2018-05-01T03:12:14.728Z,11.18
2018-05-01T03:13:14.893Z,11.24
2018-05-01T03:14:15.052Z,11.22
2018-05-01T03:15:15.215Z,11.27
2018-05-01T03:16:15.379Z,11.29
2018-05-01T03:17:15.548Z,11.29
2018-05-01T03:18:15.716Z,11.35
2018-05-01T03:19:15.876Z,11.28
2018-05-01T03:20:16.041Z,11.21
2018-05-01T03:21:16.205Z,11.24
2018-05-01T03:22:16.376Z,11.24
2018-05-01T03:23:16.540Z,11.43
2018-05-01T03:24:16.698Z,11.49
2018-05-01T03:25:16.899Z,11.19
2018-05-01T03:26:17.026Z,11.15
2018-05-01T03:27:17.193Z,11.10
2018-05-01T03:28:17.359Z,11.14
2018-05-01T03:29:17.520Z,11.22
2018-05-01T03:30:17.681Z,11.27
2018-05-01T03:31:17.850Z,11.25
2018-05-01T03:32:18.015Z,11.40
2018-05-01T03:33:18.179Z,11.49
2018-05-01T03:34:18.336Z,11.44
2018-05-01T03:35:18.497Z,11.44
2018-05-01T03:36:18.655Z,11.40
2018-05-01T03:37:18.817Z,11.47
2018-05-01T03:38:18.995Z,11.60
2018-05-01T03:39:19.237Z,11.75
2018-05-01T03:40:19.314Z,11.67
2018-05-01T03:41:19.483Z,11.55
2018-05-01T03:42:19.657Z,11.64
2018-05-01T03:43:19.816Z,11.67
2018-05-01T03:44:19.987Z,11.55
2018-05-01T03:45:20.146Z,11.62
2018-05-01T03:46:20.312Z,11.61
2018-05-01T03:47:20.476Z,11.54
2018-05-01T03:48:20.637Z,11.55
2018-05-01T03:49:20.800Z,11.54
2018-05-01T03:50:20.961Z,11.52
2018-05-01T03:51:21.121Z,11.72
2018-05-01T03:52:21.291Z,11.75
2018-05-01T03:53:21.459Z,11.75
2018-05-01T03:54:21.614Z,11.67
2018-05-01T03:55:21.783Z,11.72
2018-05-01T03:56:21.950Z,11.47
2018-05-01T03:57:22.109Z,11.43
2018-05-01T03:58:22.270Z,11.51
2018-05-01T03:59:22.433Z,11.58
2018-05-01T04:00:22.592Z,11.61
2018-05-01T04:01:22.758Z,11.70
2018-05-01T04:02:23.024Z,11.79
2018-05-01T04:03:23.085Z,11.79
2018-05-01T04:04:23.256Z,11.78
2018-05-01T04:05:23.418Z,11.75
2018-05-01T04:06:23.582Z,11.69
2018-05-01T04:07:23.743Z,11.58
2018-05-01T04:08:23.901Z,11.49
2018-05-01T04:09:24.066Z,11.46
2018-05-01T04:10:24.228Z,11.62
2018-05-01T04:11:24.392Z,11.62
2018-05-01T04:12:24.572Z,11.72
2018-05-01T04:13:24.741Z,11.70
2018-05-01T04:14:24.897Z,11.69
2018-05-01T04:15:25.057Z,11.64
2018-05-01T04:16:25.218Z,11.58
2018-05-01T04:17:25.381Z,11.55
2018-05-01T04:18:25.546Z,11.54
2018-05-01T04:19:25.712Z,11.67
2018-05-01T04:20:25.868Z,11.55
2018-05-01T04:21:26.034Z,11.61
2018-05-01T04:22:26.194Z,11.61
2018-05-01T04:23:26.354Z,11.67
2018-05-01T04:24:26.519Z,11.40
2018-05-01T04:25:26.771Z,11.46
2018-05-01T04:26:26.854Z,11.47
2018-05-01T04:27:27.016Z,11.55
2018-05-01T04:28:27.184Z,11.65
2018-05-01T04:29:27.347Z,11.44
2018-05-01T04:30:27.504Z,11.55
2018-05-01T04:31:27.677Z,11.64
2018-05-01T04:32:27.840Z,11.70
2018-05-01T04:33:27.998Z,11.78
2018-05-01T04:34:28.168Z,11.69
2018-05-01T04:35:28.325Z,11.64
2018-05-01T04:36:28.492Z,11.64
2018-05-01T04:37:28.651Z,11.46
2018-05-01T04:38:28.814Z,11.57
2018-05-01T04:39:28.983Z,11.58
2018-05-01T04:40:29.144Z,11.60
2018-05-01T04:41:29.311Z,11.43
2018-05-01T04:42:29.484Z,11.22
2018-05-01T04:43:29.641Z,11.29
2018-05-01T04:44:29.802Z,11.21
2018-05-01T04:45:29.967Z,11.37
2018-05-01T04:46:30.130Z,11.44
2018-05-01T04:47:30.292Z,11.58
2018-05-01T04:48:30.458Z,11.44
2018-05-01T04:49:30.623Z,11.54
2018-05-01T04:50:30.786Z,11.54
2018-05-01T04:51:30.947Z,11.61
2018-05-01T04:52:31.117Z,11.65
2018-05-01T04:53:31.276Z,11.69
2018-05-01T04:54:31.435Z,11.61
2018-05-01T04:55:31.600Z,11.61
2018-05-01T04:56:31.772Z,11.70
2018-05-01T04:57:31.936Z,11.55
2018-05-01T04:58:32.106Z,11.51
2018-05-01T04:59:32.259Z,11.49
2018-05-01T05:00:32.428Z,11.32
2018-05-01T05:01:32.601Z,11.28
2018-05-01T05:02:32.753Z,11.46
2018-05-01T05:03:32.917Z,11.58
2018-05-01T05:04:33.080Z,11.40
2018-05-01T05:05:33.242Z,11.44
2018-05-01T05:06:33.413Z,11.46
2018-05-01T05:07:33.574Z,11.54
2018-05-01T05:08:33.741Z,11.69
2018-05-01T05:09:33.916Z,11.73
2018-05-01T05:10:34.074Z,11.80
2018-05-01T05:11:34.233Z,11.95
2018-05-01T05:12:34.396Z,11.88
2018-05-01T05:13:34.556Z,12.05
2018-05-01T05:14:34.720Z,12.07
2018-05-01T05:15:34.879Z,11.95
2018-05-01T05:16:35.044Z,12.13
2018-05-01T05:17:35.204Z,12.20
2018-05-01T05:18:35.372Z,12.17
2018-05-01T05:19:35.534Z,11.91
2018-05-01T05:20:35.705Z,11.90
2018-05-01T05:21:35.875Z,11.88
2018-05-01T05:22:36.040Z,12.05
2018-05-01T05:23:36.204Z,12.14
2018-05-01T05:24:36.377Z,12.12
2018-05-01T05:25:36.532Z,12.02
2018-05-01T05:26:36.700Z,11.83
2018-05-01T05:27:36.860Z,11.80
2018-05-01T05:28:37.022Z,11.82
2018-05-01T05:29:37.186Z,11.96
2018-05-01T05:30:37.349Z,11.73
2018-05-01T05:31:37.505Z,11.90
2018-05-01T05:32:37.663Z,11.86
2018-05-01T05:33:37.829Z,11.79
2018-05-01T05:34:37.982Z,11.99
2018-05-01T05:35:38.150Z,11.86
2018-05-01T05:36:38.306Z,11.86
2018-05-01T05:37:38.465Z,11.80
2018-05-01T05:38:38.632Z,11.86
2018-05-01T05:39:38.865Z,11.90
2018-05-01T05:40:38.966Z,11.90
2018-05-01T05:41:39.135Z,11.83
2018-05-01T05:42:39.305Z,12.04
2018-05-01T05:43:39.467Z,11.91
2018-05-01T05:44:39.662Z,11.76
2018-05-01T05:45:39.799Z,12.04
2018-05-01T05:46:39.965Z,11.85
2018-05-01T05:47:40.132Z,11.88
2018-05-01T05:48:40.294Z,12.04
2018-05-01T05:49:40.451Z,12.04
2018-05-01T05:50:40.615Z,11.90
2018-05-01T05:51:40.772Z,11.85
2018-05-01T05:52:40.939Z,11.83
2018-05-01T05:53:41.110Z,11.86
2018-05-01T05:54:41.265Z,12.02
2018-05-01T05:55:41.433Z,12.17
2018-05-01T05:56:41.594Z,12.53
2018-05-01T05:57:41.751Z,12.45
2018-05-01T05:58:41.917Z,12.57
2018-05-01T05:59:42.075Z,12.71
2018-05-01T06:00:42.235Z,12.62
2018-05-01T06:01:42.405Z,12.68
2018-05-01T06:02:42.571Z,12.64
2018-05-01T06:03:42.733Z,12.49
2018-05-01T06:04:42.903Z,12.57
2018-05-01T06:05:43.065Z,12.50
2018-05-01T06:06:43.244Z,12.57
2018-05-01T06:07:43.460Z,12.67
2018-05-01T06:08:43.582Z,12.64
2018-05-01T06:09:43.755Z,12.54
2018-05-01T06:10:43.931Z,12.67
2018-05-01T06:11:44.087Z,12.41
2018-05-01T06:12:44.255Z,12.46
2018-05-01T06:13:44.502Z,12.53
2018-05-01T06:14:44.595Z,12.52
2018-05-01T06:15:44.751Z,12.57
2018-05-01T06:16:44.909Z,12.64
2018-05-01T06:17:45.072Z,12.59
2018-05-01T06:18:45.233Z,12.60
2018-05-01T06:19:45.398Z,12.59
2018-05-01T06:20:45.567Z,12.64
2018-05-01T06:21:45.802Z,12.59
2018-05-01T06:22:45.898Z,12.52
2018-05-01T06:23:46.063Z,12.37
2018-05-01T06:24:46.223Z,12.41
2018-05-01T06:25:46.392Z,12.39
2018-05-01T06:26:46.555Z,12.59
2018-05-01T06:27:46.716Z,12.62
2018-05-01T06:28:46.880Z,12.72
2018-05-01T06:29:47.046Z,12.83
2018-05-01T06:30:47.205Z,12.70
2018-05-01T06:31:47.424Z,12.74
2018-05-01T06:32:47.588Z,12.42
2018-05-01T06:33:47.748Z,12.56
2018-05-01T06:34:47.916Z,12.72
2018-05-01T06:35:48.086Z,12.57
2018-05-01T06:36:48.300Z,12.65
2018-05-01T06:37:48.407Z,12.72
2018-05-01T06:38:48.563Z,12.95
2018-05-01T06:39:48.748Z,12.65
2018-05-01T06:40:48.910Z,12.78
2018-05-01T06:41:49.074Z,12.82
2018-05-01T06:42:49.237Z,12.92
2018-05-01T06:43:49.397Z,13.11
2018-05-01T06:44:49.572Z,13.44
2018-05-01T06:45:49.734Z,13.33
2018-05-01T06:46:49.902Z,13.36
2018-05-01T06:47:50.076Z,13.33
2018-05-01T06:48:50.240Z,13.48
2018-05-01T06:49:50.406Z,13.23
2018-05-01T06:50:50.573Z,13.57
2018-05-01T06:51:50.725Z,13.57
2018-05-01T06:52:50.883Z,13.67
2018-05-01T06:53:51.051Z,13.66
2018-05-01T06:54:51.218Z,13.55
2018-05-01T06:55:51.372Z,13.59
2018-05-01T06:56:51.543Z,13.69
2018-05-01T06:57:51.711Z,13.51
2018-05-01T06:58:51.871Z,13.46
2018-05-01T06:59:52.032Z,13.12
2018-05-01T07:00:52.201Z,13.51
2018-05-01T07:01:52.356Z,13.67
2018-05-01T07:02:52.534Z,13.70
2018-05-01T07:03:52.692Z,13.66
2018-05-01T07:04:52.877Z,13.69
2018-05-01T07:05:53.050Z,13.55
2018-05-01T07:06:53.203Z,13.66
2018-05-01T07:07:53.449Z,13.46
2018-05-01T07:08:53.548Z,13.42
2018-05-01T07:09:53.724Z,13.44
2018-05-01T07:10:53.889Z,13.30
2018-05-01T07:11:54.058Z,13.22
2018-05-01T07:12:54.228Z,13.15
2018-05-01T07:13:54.388Z,13.22
2018-05-01T07:14:54.552Z,12.89
2018-05-01T07:15:54.796Z,12.87
2018-05-01T07:16:54.887Z,12.93
2018-05-01T07:17:55.057Z,13.10
2018-05-01T07:18:55.217Z,13.01
2018-05-01T07:19:55.384Z,13.04
2018-05-01T07:20:55.551Z,12.82
2018-05-01T07:21:55.723Z,12.86
2018-05-01T07:22:55.895Z,12.86
2018-05-01T07:23:56.071Z,12.59
2018-05-01T07:24:56.236Z,12.65
2018-05-01T07:25:56.409Z,12.49
2018-05-01T07:26:56.573Z,12.45
2018-05-01T07:27:56.742Z,12.47
2018-05-01T07:28:56.901Z,12.56
2018-05-01T07:29:57.066Z,12.59
2018-05-01T07:30:57.229Z,12.65
2018-05-01T07:31:57.390Z,12.56
2018-05-01T07:32:57.571Z,12.49
2018-05-01T07:33:57.733Z,12.59
2018-05-01T07:34:57.891Z,12.67
2018-05-01T07:35:58.055Z,12.59
2018-05-01T07:36:58.220Z,12.67
2018-05-01T07:37:58.393Z,12.72
2018-05-01T07:38:58.555Z,12.72
2018-05-01T07:39:58.722Z,12.82
2018-05-01T07:40:58.883Z,12.74
2018-05-01T07:41:59.045Z,12.62
2018-05-01T07:42:59.205Z,12.62
2018-05-01T07:43:59.382Z,12.67
2018-05-01T07:44:59.565Z,12.60
2018-05-01T07:45:59.731Z,12.71
2018-05-01T07:46:59.894Z,12.65
2018-05-01T07:48:00.058Z,12.79
2018-05-01T07:49:00.252Z,12.92
2018-05-01T07:50:00.385Z,13.11
2018-05-01T07:51:00.549Z,13.03
2018-05-01T07:52:00.713Z,13.08
2018-05-01T07:53:00.884Z,13.11
2018-05-01T07:54:01.055Z,13.14
2018-05-01T07:55:01.222Z,13.38
2018-05-01T07:56:01.399Z,13.22
2018-05-01T07:57:01.547Z,13.23
2018-05-01T07:58:01.713Z,12.92
2018-05-01T07:59:01.878Z,12.85
2018-05-01T08:00:02.036Z,12.87
2018-05-01T08:01:02.202Z,13.03
2018-05-01T08:02:02.360Z,13.25
2018-05-01T08:03:02.525Z,13.52
2018-05-01T08:04:02.691Z,13.57
2018-05-01T08:05:02.872Z,13.73
2018-05-01T08:06:03.041Z,13.66
2018-05-01T08:07:03.287Z,13.81
2018-05-01T08:08:03.378Z,13.57
2018-05-01T08:09:03.543Z,13.60
2018-05-01T08:10:03.709Z,13.48
2018-05-01T08:11:03.875Z,13.33
2018-05-01T08:12:04.121Z,13.42
2018-05-01T08:13:04.220Z,12.95
2018-05-01T08:14:04.387Z,12.90
2018-05-01T08:15:04.555Z,13.10
2018-05-01T08:16:04.738Z,13.14
2018-05-01T08:17:04.908Z,13.14
2018-05-01T08:18:05.085Z,13.04
2018-05-01T08:19:05.249Z,13.36
2018-05-01T08:20:05.414Z,13.25
2018-05-01T08:21:06.348Z,13.32
2018-05-01T08:22:05.757Z,13.45
2018-05-01T08:23:05.925Z,13.42
2018-05-01T08:24:06.090Z,13.41
2018-05-01T08:25:06.257Z,13.12
2018-05-01T08:26:06.419Z,13.14
2018-05-01T08:27:06.585Z,12.87
2018-05-01T08:28:06.750Z,12.95
2018-05-01T08:29:06.917Z,13.08
2018-05-01T08:30:07.080Z,13.14
2018-05-01T08:31:07.261Z,12.95
2018-05-01T08:32:07.428Z,13.00
2018-05-01T08:33:07.594Z,13.01
2018-05-01T08:34:07.759Z,12.86
2018-05-01T08:35:07.922Z,13.05
2018-05-01T08:36:08.082Z,13.20
2018-05-01T08:37:08.262Z,12.90
2018-05-01T08:38:08.408Z,12.75
2018-05-01T08:39:08.588Z,12.77
2018-05-01T08:40:08.748Z,12.92
2018-05-01T08:41:08.918Z,13.05
2018-05-01T08:42:09.088Z,12.90
2018-05-01T08:43:09.263Z,12.97
2018-05-01T08:44:09.427Z,13.03
2018-05-01T08:45:09.586Z,13.32
2018-05-01T08:46:09.764Z,13.59
2018-05-01T08:47:09.937Z,13.73
2018-05-01T08:48:10.093Z,13.82
2018-05-01T08:49:10.244Z,13.88
2018-05-01T08:50:10.439Z,13.66
2018-05-01T08:51:10.598Z,13.62
2018-05-01T08:52:10.770Z,13.73
2018-05-01T08:53:11.017Z,13.52
2018-05-01T08:54:11.083Z,13.60
2018-05-01T08:55:11.250Z,13.49
2018-05-01T08:56:11.414Z,13.57
2018-05-01T08:57:11.586Z,13.57
2018-05-01T08:58:11.757Z,13.55
2018-05-01T08:59:11.915Z,13.38
2018-05-01T09:00:12.097Z,13.69
2018-05-01T09:01:12.267Z,13.63
2018-05-01T09:02:12.433Z,13.44
2018-05-01T09:03:12.602Z,13.36
2018-05-01T09:04:12.835Z,13.38
2018-05-01T09:05:12.935Z,13.49
2018-05-01T09:06:13.111Z,13.15
2018-05-01T09:07:27.928Z,13.33
2018-05-01T09:08:13.465Z,13.36
2018-05-01T09:09:13.622Z,13.48
2018-05-01T09:10:13.794Z,13.45
2018-05-01T09:11:13.958Z,13.49
2018-05-01T09:12:14.130Z,13.64
2018-05-01T09:13:14.293Z,13.70
2018-05-01T09:14:14.457Z,13.48
2018-05-01T09:15:14.627Z,13.45
2018-05-01T09:16:14.791Z,13.55
2018-05-01T09:17:14.957Z,13.66
2018-05-01T09:18:15.239Z,13.78
2018-05-01T09:19:15.295Z,13.85
2018-05-01T09:20:15.456Z,14.60
2018-05-01T09:21:15.615Z,14.86
2018-05-01T09:22:15.780Z,14.84
2018-05-01T09:23:15.944Z,15.87
2018-05-01T09:24:16.119Z,15.46
2018-05-01T09:25:16.286Z,17.21
2018-05-01T09:26:16.563Z,17.62
2018-05-01T09:27:16.873Z,19.26
2018-05-01T09:28:16.980Z,19.33
2018-05-01T09:29:16.968Z,19.92
2018-05-01T09:30:17.133Z,18.70
2018-05-01T09:31:17.299Z,18.35
2018-05-01T09:32:17.565Z,17.90
2018-05-01T09:33:17.664Z,16.78
2018-05-01T09:34:17.830Z,15.54
2018-05-01T09:35:18.017Z,15.60
2018-05-01T09:36:18.191Z,15.53
2018-05-01T09:37:18.359Z,15.46
2018-05-01T09:38:18.536Z,15.07
2018-05-01T09:39:18.703Z,14.70
2018-05-01T09:40:18.880Z,14.86
2018-05-01T09:41:19.035Z,14.77
2018-05-01T09:42:19.213Z,14.62
2018-05-01T09:43:19.395Z,14.86
2018-05-01T09:44:19.563Z,14.75
2018-05-01T09:45:19.740Z,14.61
2018-05-01T09:46:20.062Z,14.55
2018-05-01T09:47:20.093Z,14.64
2018-05-01T09:48:20.259Z,15.57
2018-05-01T09:49:20.434Z,16.85
2018-05-01T09:50:20.734Z,18.85
2018-05-01T09:51:20.756Z,17.41
2018-05-01T09:52:21.135Z,16.76
2018-05-01T09:53:21.092Z,16.24
2018-05-01T09:54:21.373Z,15.87
2018-05-01T09:55:21.577Z,15.67
2018-05-01T09:56:21.546Z,15.59
2018-05-01T09:57:21.722Z,15.36
2018-05-01T09:58:21.883Z,15.29
2018-05-01T09:59:22.071Z,15.19
2018-05-01T10:00:22.231Z,15.39
2018-05-01T10:01:22.405Z,15.49
2018-05-01T10:02:22.576Z,17.56
2018-05-01T10:03:22.912Z,18.32
2018-05-01T10:04:22.902Z,17.87
2018-05-01T10:05:23.071Z,18.99
2018-05-01T10:06:23.242Z,18.50
2018-05-01T10:07:23.406Z,19.40
2018-05-01T10:08:23.577Z,19.81
2018-05-01T10:09:23.783Z,19.32
2018-05-01T10:10:23.913Z,18.60
2018-05-01T10:11:24.088Z,20.17
2018-05-01T10:12:24.280Z,21.28
2018-05-01T10:13:24.501Z,21.47
2018-05-01T10:14:24.645Z,23.04
2018-05-01T10:15:24.818Z,22.37
2018-05-01T10:16:24.993Z,22.20
2018-05-01T10:17:25.173Z,22.90
2018-05-01T10:18:25.341Z,22.39
2018-05-01T10:19:25.517Z,22.45
2018-05-01T10:20:25.714Z,24.05
2018-05-01T10:21:25.868Z,24.46
2018-05-01T10:22:26.045Z,24.62
2018-05-01T10:23:26.227Z,25.79
2018-05-01T10:24:26.776Z,25.45
2018-05-01T10:25:26.692Z,24.08
2018-05-01T10:26:26.719Z,22.45
2018-05-01T10:27:26.894Z,23.35
2018-05-01T10:28:27.083Z,24.67
2018-05-01T10:29:27.255Z,25.67
2018-05-01T10:30:28.374Z,24.76
2018-05-01T10:31:27.625Z,25.39
2018-05-01T10:32:27.818Z,25.73
2018-05-01T10:33:28.009Z,24.61
2018-05-01T10:34:28.181Z,22.75
2018-05-01T10:35:28.357Z,21.98
2018-05-01T10:36:28.534Z,23.97
2018-05-01T10:37:28.713Z,22.91
2018-05-01T10:38:28.941Z,22.49
2018-05-01T10:39:29.079Z,24.09
2018-05-01T10:40:29.257Z,23.02
2018-05-01T10:41:29.438Z,22.52
2018-05-01T10:42:29.608Z,21.21
2018-05-01T10:43:29.800Z,21.56
2018-05-01T10:44:29.983Z,22.67
2018-05-01T10:45:30.151Z,21.29
2018-05-01T10:46:30.325Z,20.73
2018-05-01T10:47:30.500Z,22.28
2018-05-01T10:48:30.676Z,22.85
2018-05-01T10:49:30.893Z,23.93
2018-05-01T10:50:31.035Z,24.81
2018-05-01T10:51:31.216Z,24.71
2018-05-01T10:52:31.392Z,22.85
2018-05-01T10:53:31.584Z,22.77
2018-05-01T10:55:07.458Z,21.80
2018-05-01T10:55:59.937Z,20.79
2018-05-01T10:57:07.975Z,20.17
2018-05-01T10:57:53.249Z,22.65
2018-05-01T10:58:32.403Z,23.85
2018-05-01T10:59:47.453Z,24.60
2018-05-01T11:00:33.428Z,24.00
2018-05-01T11:03:08.955Z,23.04
2018-05-01T11:05:07.523Z,22.77
2018-05-01T11:06:06.868Z,23.36
2018-05-01T11:07:06.689Z,23.39
2018-05-01T11:08:07.823Z,22.37
2018-05-01T11:09:07.044Z,22.17
2018-05-01T11:10:07.418Z,22.97
2018-05-01T11:11:07.624Z,23.98
2018-05-01T11:12:08.427Z,25.36
2018-05-01T11:13:07.916Z,25.75
2018-05-01T11:14:08.188Z,25.30
2018-05-01T11:15:08.382Z,24.99
2018-05-01T11:16:08.402Z,25.64
2018-05-01T11:17:08.774Z,25.43
2018-05-01T11:18:08.910Z,25.08
2018-05-01T11:19:09.020Z,25.76
2018-05-01T11:20:09.286Z,26.65
2018-05-01T11:21:09.356Z,27.40
2018-05-01T11:22:09.639Z,27.85
2018-05-01T11:23:09.782Z,26.77
2018-05-01T11:24:09.906Z,25.80
2018-05-01T11:25:10.082Z,25.69
2018-05-01T11:26:10.350Z,25.28
2018-05-01T11:27:10.377Z,24.55
2018-05-01T11:28:10.744Z,25.38
2018-05-01T11:29:10.881Z,26.47
2018-05-01T11:30:11.043Z,26.72
2018-05-01T11:31:11.107Z,27.60
2018-05-01T11:32:11.160Z,27.49
2018-05-01T11:33:11.515Z,26.85
2018-05-01T11:34:11.510Z,27.88
2018-05-01T11:35:12.431Z,27.92
2018-05-01T11:36:11.889Z,28.81
2018-05-01T11:37:12.182Z,29.30
2018-05-01T11:38:12.991Z,30.26
2018-05-01T11:39:12.476Z,29.00
2018-05-01T11:40:13.465Z,29.06
2018-05-01T11:41:12.849Z,28.55
2018-05-01T11:42:12.902Z,27.94
2018-05-01T11:43:13.266Z,28.39
2018-05-01T11:44:13.489Z,26.45
2018-05-01T11:45:13.569Z,25.38
2018-05-01T11:46:13.617Z,26.39
2018-05-01T11:47:13.927Z,25.85
2018-05-01T11:48:14.057Z,26.02
2018-05-01T11:49:14.248Z,25.91
2018-05-01T11:50:14.306Z,25.94
2018-05-01T11:51:14.743Z,25.58
2018-05-01T11:52:14.801Z,25.65
2018-05-01T11:53:14.863Z,26.25
2018-05-01T11:54:15.200Z,27.29
2018-05-01T11:55:15.476Z,27.75
2018-05-01T11:56:15.765Z,28.00
2018-05-01T11:57:15.817Z,28.66
2018-05-01T11:58:16.073Z,27.39
2018-05-01T11:59:16.285Z,25.24
2018-05-01T12:00:16.399Z,26.37
2018-05-01T12:01:16.548Z,24.32
2018-05-01T12:02:17.485Z,24.58
2018-05-01T12:03:17.154Z,25.40
2018-05-01T12:04:17.334Z,24.64
2018-05-01T12:05:17.576Z,25.54
2018-05-01T12:06:17.594Z,25.75
2018-05-01T12:07:17.788Z,26.20
2018-05-01T12:08:18.003Z,25.06
2018-05-01T12:09:18.179Z,23.47
2018-05-01T12:10:18.352Z,24.02
2018-05-01T12:11:18.544Z,23.35
2018-05-01T12:12:18.716Z,21.84
2018-05-01T12:13:19.849Z,23.16
2018-05-01T12:14:19.151Z,24.06
2018-05-01T12:15:19.452Z,24.18
2018-05-01T12:16:19.638Z,23.10
2018-05-01T12:17:19.636Z,24.05
2018-05-01T12:18:19.819Z,25.60
2018-05-01T12:19:21.020Z,26.44
2018-05-01T12:20:20.194Z,27.21
2018-05-01T12:21:20.380Z,27.74
2018-05-01T12:22:20.564Z,26.10
2018-05-01T12:23:20.920Z,25.50
2018-05-01T12:24:21.072Z,25.43
2018-05-01T12:25:21.111Z,24.27
2018-05-01T12:26:21.302Z,23.50
2018-05-01T12:27:22.908Z,25.45
2018-05-01T12:28:21.711Z,26.36
2018-05-01T12:29:22.140Z,26.32
2018-05-01T12:30:22.021Z,26.70
2018-05-01T12:31:22.471Z,26.25
2018-05-01T12:32:22.442Z,26.05
2018-05-01T12:33:22.613Z,25.21
2018-05-01T12:34:23.064Z,24.02
2018-05-01T12:35:23.151Z,23.38
2018-05-01T12:36:23.210Z,22.75
2018-05-01T12:37:23.507Z,22.20
2018-05-01T12:38:23.760Z,21.58
2018-05-01T12:39:23.761Z,21.47
2018-05-01T12:40:23.950Z,20.70
2018-05-01T12:41:24.138Z,20.70
2018-05-01T12:42:24.596Z,20.52
2018-05-01T12:43:24.473Z,20.67
2018-05-01T12:44:24.675Z,20.54
2018-05-01T12:45:25.056Z,20.32
2018-05-01T12:46:25.005Z,19.88
2018-05-01T12:47:25.271Z,19.94
2018-05-01T12:48:25.468Z,19.83
2018-05-01T12:49:25.601Z,19.96
2018-05-01T12:50:25.912Z,20.17
2018-05-01T12:51:25.924Z,19.69
2018-05-01T12:52:26.104Z,19.87
2018-05-01T12:53:26.279Z,19.31
2018-05-01T12:54:26.665Z,19.19
2018-05-01T12:55:26.628Z,19.18
2018-05-01T12:56:26.950Z,19.40
2018-05-01T12:57:27.135Z,19.37
2018-05-01T12:58:27.366Z,19.11